Terminal Aerodrome Forecast
Issued by NWS

Home | Current Version | Previous Version | Text Only | Print | Product List | Glossary On
Versions: 1 2 3 4 5 6 7 8 9 10 11 12 13
877
FTPA31 PHFO 091740
TAFHTO
TAF
PHTO 091740Z 0918/1018 20004KT P6SM SCT050 OVC090
     FM092000 13009KT P6SM VCSH SCT025 SCT050 OVC080
     FM100500 22004KT P6SM VCSH SCT025 BKN040
     FM101000 22004KT 6SM -RA SCT015 BKN025 OVC045=

USA.gov is the U.S. government's official web portal to all federal, state and local government web resources and services.